sensor_id;sensor_type;location;lat;lon;timestamp;P1;durP1;ratioP1;P2;durP2;ratioP2
31910;SDS011;18457;52.432;16.914;2024-01-15T00:00:49;25.80;;;13.10;;
31910;SDS011;18457;52.432;16.914;2024-01-15T00:03:41;28.70;;;13.00;;
31910;SDS011;18457;52.432;16.914;2024-01-15T00:06:16;24.90;;;13.80;;
31910;SDS011;18457;52.432;16.914;2024-01-15T00:08:48;22.70;;;12.30;;
31910;SDS011;18457;52.432;16.914;2024-01-15T00:11:20;23.20;;;12.60;;
31910;SDS011;18457;52.432;16.914;2024-01-15T00:13:52;25.70;;;13.50;;
31910;SDS011;18457;52.432;16.914;2024-01-15T00:16:23;25.10;;;12.80;;
31910;SDS011;18457;52.432;16.914;2024-01-15T00:18:55;22.50;;;10.90;;
31910;SDS011;18457;52.432;16.914;2024-01-15T00:21:28;25.20;;;13.00;;
31910;SDS011;18457;52.432;16.914;2024-01-15T00:24:00;29.60;;;14.20;;
31910;SDS011;18457;52.432;16.914;2024-01-15T00:26:32;24.00;;;12.50;;
31910;SDS011;18457;52.432;16.914;2024-01-15T00:29:04;25.90;;;13.70;;
31910;SDS011;18457;52.432;16.914;2024-01-15T00:31:36;26.50;;;13.40;;
31910;SDS011;18457;52.432;16.914;2024-01-15T00:34:08;29.20;;;14.40;;
31910;SDS011;18457;52.432;16.914;2024-01-15T00:36:40;27.70;;;13.40;;
31910;SDS011;18457;52.432;16.914;2024-01-15T00:39:12;28.20;;;12.60;;
31910;SDS011;18457;52.432;16.914;2024-01-15T00:41:46;26.60;;;13.50;;
31910;SDS011;18457;52.432;16.914;2024-01-15T00:44:17;25.50;;;13.40;;
31910;SDS011;18457;52.432;16.914;2024-01-15T00:46:49;24.50;;;12.60;;
31910;SDS011;18457;52.432;16.914;2024-01-15T00:49:21;27.70;;;12.50;;
31910;SDS011;18457;52.432;16.914;2024-01-15T00:51:53;26.30;;;13.80;;
31910;SDS011;18457;52.432;16.914;2024-01-15T00:54:26;20.70;;;10.20;;
31910;SDS011;18457;52.432;16.914;2024-01-15T00:56:58;24.40;;;12.00;;
31910;SDS011;18457;52.432;16.914;2024-01-15T00:59:30;26.80;;;13.80;;
31910;SDS011;18457;52.432;16.914;2024-01-15T01:02:02;27.70;;;13.80;;
31910;SDS011;18457;52.432;16.914;2024-01-15T01:04:34;34.60;;;14.70;;
31910;SDS011;18457;52.432;16.914;2024-01-15T01:07:06;29.80;;;14.00;;
31910;SDS011;18457;52.432;16.914;2024-01-15T01:09:38;23.10;;;11.60;;
31910;SDS011;18457;52.432;16.914;2024-01-15T01:12:10;26.30;;;13.80;;
31910;SDS011;18457;52.432;16.914;2024-01-15T01:14:43;27.40;;;12.40;;
31910;SDS011;18457;52.432;16.914;2024-01-15T01:17:14;29.30;;;13.60;;
31910;SDS011;18457;52.432;16.914;2024-01-15T01:19:47;30.60;;;15.00;;
31910;SDS011;18457;52.432;16.914;2024-01-15T01:22:19;27.90;;;14.00;;
31910;SDS011;18457;52.432;16.914;2024-01-15T01:24:51;30.70;;;14.50;;
31910;SDS011;18457;52.432;16.914;2024-01-15T01:27:23;25.20;;;13.50;;
31910;SDS011;18457;52.432;16.914;2024-01-15T01:29:55;28.00;;;14.30;;
31910;SDS011;18457;52.432;16.914;2024-01-15T01:32:28;19.70;;;10.30;;
31910;SDS011;18457;52.432;16.914;2024-01-15T01:35:00;38.70;;;18.60;;
31910;SDS011;18457;52.432;16.914;2024-01-15T01:37:32;30.10;;;14.80;;
31910;SDS011;18457;52.432;16.914;2024-01-15T01:40:05;28.30;;;14.20;;
31910;SDS011;18457;52.432;16.914;2024-01-15T01:42:39;32.90;;;15.60;;
31910;SDS011;18457;52.432;16.914;2024-01-15T01:45:11;30.40;;;14.20;;
31910;SDS011;18457;52.432;16.914;2024-01-15T01:47:43;30.50;;;14.80;;
31910;SDS011;18457;52.432;16.914;2024-01-15T01:50:15;35.60;;;15.90;;
31910;SDS011;18457;52.432;16.914;2024-01-15T01:52:47;28.60;;;13.50;;
31910;SDS011;18457;52.432;16.914;2024-01-15T01:57:52;28.40;;;13.10;;
31910;SDS011;18457;52.432;16.914;2024-01-15T02:00:24;25.40;;;12.40;;
31910;SDS011;18457;52.432;16.914;2024-01-15T02:02:56;26.20;;;12.40;;
31910;SDS011;18457;52.432;16.914;2024-01-15T02:05:29;28.00;;;13.30;;
31910;SDS011;18457;52.432;16.914;2024-01-15T02:08:02;22.90;;;11.90;;
31910;SDS011;18457;52.432;16.914;2024-01-15T02:13:05;26.80;;;11.80;;
31910;SDS011;18457;52.432;16.914;2024-01-15T02:15:37;24.60;;;12.30;;
31910;SDS011;18457;52.432;16.914;2024-01-15T02:18:10;25.80;;;12.10;;
31910;SDS011;18457;52.432;16.914;2024-01-15T02:20:42;24.60;;;11.30;;
31910;SDS011;18457;52.432;16.914;2024-01-15T02:23:14;24.70;;;13.00;;
31910;SDS011;18457;52.432;16.914;2024-01-15T02:25:47;22.60;;;11.30;;
31910;SDS011;18457;52.432;16.914;2024-01-15T02:28:19;16.00;;;7.90;;
31910;SDS011;18457;52.432;16.914;2024-01-15T02:30:51;22.80;;;10.90;;
31910;SDS011;18457;52.432;16.914;2024-01-15T02:33:23;24.90;;;13.00;;
31910;SDS011;18457;52.432;16.914;2024-01-15T02:35:56;21.90;;;11.00;;
31910;SDS011;18457;52.432;16.914;2024-01-15T02:38:28;23.40;;;11.40;;
31910;SDS011;18457;52.432;16.914;2024-01-15T02:41:00;24.30;;;11.80;;
31910;SDS011;18457;52.432;16.914;2024-01-15T02:43:32;23.80;;;11.40;;
31910;SDS011;18457;52.432;16.914;2024-01-15T02:46:04;21.70;;;12.10;;
31910;SDS011;18457;52.432;16.914;2024-01-15T02:48:36;24.20;;;12.10;;
31910;SDS011;18457;52.432;16.914;2024-01-15T02:51:08;27.40;;;11.90;;
31910;SDS011;18457;52.432;16.914;2024-01-15T02:53:40;20.60;;;10.50;;
31910;SDS011;18457;52.432;16.914;2024-01-15T02:56:12;25.60;;;10.80;;
31910;SDS011;18457;52.432;16.914;2024-01-15T02:58:44;22.80;;;11.60;;
31910;SDS011;18457;52.432;16.914;2024-01-15T03:01:17;20.40;;;10.50;;
31910;SDS011;18457;52.432;16.914;2024-01-15T03:03:52;28.30;;;11.50;;
31910;SDS011;18457;52.432;16.914;2024-01-15T03:06:27;20.70;;;12.10;;
31910;SDS011;18457;52.432;16.914;2024-01-15T03:08:59;26.10;;;12.30;;
31910;SDS011;18457;52.432;16.914;2024-01-15T03:11:38;28.70;;;11.70;;
31910;SDS011;18457;52.432;16.914;2024-01-15T03:14:10;24.80;;;12.00;;
31910;SDS011;18457;52.432;16.914;2024-01-15T03:16:42;29.00;;;13.60;;
31910;SDS011;18457;52.432;16.914;2024-01-15T03:19:14;31.20;;;13.60;;
31910;SDS011;18457;52.432;16.914;2024-01-15T03:21:46;31.70;;;13.80;;
31910;SDS011;18457;52.432;16.914;2024-01-15T03:24:18;33.30;;;13.90;;
31910;SDS011;18457;52.432;16.914;2024-01-15T03:26:50;22.80;;;11.80;;
31910;SDS011;18457;52.432;16.914;2024-01-15T03:29:22;26.00;;;13.00;;
31910;SDS011;18457;52.432;16.914;2024-01-15T03:31:54;28.40;;;12.60;;
31910;SDS011;18457;52.432;16.914;2024-01-15T03:34:26;27.80;;;13.30;;
31910;SDS011;18457;52.432;16.914;2024-01-15T03:36:58;28.50;;;13.60;;
31910;SDS011;18457;52.432;16.914;2024-01-15T03:39:30;27.20;;;12.60;;
31910;SDS011;18457;52.432;16.914;2024-01-15T03:42:02;16.30;;;9.20;;
31910;SDS011;18457;52.432;16.914;2024-01-15T03:44:35;24.70;;;11.70;;
31910;SDS011;18457;52.432;16.914;2024-01-15T03:47:07;26.90;;;13.10;;
31910;SDS011;18457;52.432;16.914;2024-01-15T03:49:38;25.70;;;11.80;;
31910;SDS011;18457;52.432;16.914;2024-01-15T03:52:11;24.10;;;11.30;;
31910;SDS011;18457;52.432;16.914;2024-01-15T03:54:43;26.70;;;13.10;;
31910;SDS011;18457;52.432;16.914;2024-01-15T03:57:14;26.60;;;12.30;;
31910;SDS011;18457;52.432;16.914;2024-01-15T03:59:46;26.00;;;11.60;;
31910;SDS011;18457;52.432;16.914;2024-01-15T04:02:18;28.00;;;12.40;;
31910;SDS011;18457;52.432;16.914;2024-01-15T04:04:50;18.20;;;8.80;;
31910;SDS011;18457;52.432;16.914;2024-01-15T04:07:22;22.70;;;11.60;;
31910;SDS011;18457;52.432;16.914;2024-01-15T04:09:54;23.00;;;11.10;;
31910;SDS011;18457;52.432;16.914;2024-01-15T04:12:26;30.50;;;11.30;;
31910;SDS011;18457;52.432;16.914;2024-01-15T04:14:58;23.20;;;10.90;;
31910;SDS011;18457;52.432;16.914;2024-01-15T04:17:30;22.50;;;10.00;;
31910;SDS011;18457;52.432;16.914;2024-01-15T04:20:02;23.20;;;11.60;;
31910;SDS011;18457;52.432;16.914;2024-01-15T04:22:35;23.80;;;10.20;;
31910;SDS011;18457;52.432;16.914;2024-01-15T04:25:08;21.90;;;10.40;;
31910;SDS011;18457;52.432;16.914;2024-01-15T04:27:39;23.40;;;11.20;;
31910;SDS011;18457;52.432;16.914;2024-01-15T04:30:12;21.20;;;10.60;;
31910;SDS011;18457;52.432;16.914;2024-01-15T04:32:44;24.70;;;11.40;;
31910;SDS011;18457;52.432;16.914;2024-01-15T04:35:17;20.70;;;10.10;;
31910;SDS011;18457;52.432;16.914;2024-01-15T04:37:48;23.70;;;10.80;;
31910;SDS011;18457;52.432;16.914;2024-01-15T04:40:20;17.90;;;8.50;;
31910;SDS011;18457;52.432;16.914;2024-01-15T04:42:52;18.00;;;9.20;;
31910;SDS011;18457;52.432;16.914;2024-01-15T04:45:24;17.50;;;8.30;;
31910;SDS011;18457;52.432;16.914;2024-01-15T04:47:58;18.40;;;9.00;;
31910;SDS011;18457;52.432;16.914;2024-01-15T04:50:30;19.50;;;7.40;;
31910;SDS011;18457;52.432;16.914;2024-01-15T04:53:01;19.80;;;7.60;;
31910;SDS011;18457;52.432;16.914;2024-01-15T04:55:34;13.60;;;7.10;;
31910;SDS011;18457;52.432;16.914;2024-01-15T04:58:05;17.20;;;7.90;;
31910;SDS011;18457;52.432;16.914;2024-01-15T05:00:37;9.40;;;5.10;;
31910;SDS011;18457;52.432;16.914;2024-01-15T05:03:09;13.20;;;6.40;;
31910;SDS011;18457;52.432;16.914;2024-01-15T05:05:42;17.60;;;7.10;;
31910;SDS011;18457;52.432;16.914;2024-01-15T05:08:14;16.00;;;6.30;;
31910;SDS011;18457;52.432;16.914;2024-01-15T05:10:46;11.40;;;5.90;;
31910;SDS011;18457;52.432;16.914;2024-01-15T05:13:18;14.40;;;6.50;;
31910;SDS011;18457;52.432;16.914;2024-01-15T05:15:50;13.70;;;6.70;;
31910;SDS011;18457;52.432;16.914;2024-01-15T05:18:22;13.70;;;7.40;;
31910;SDS011;18457;52.432;16.914;2024-01-15T05:20:54;16.60;;;8.40;;
31910;SDS011;18457;52.432;16.914;2024-01-15T05:23:26;11.70;;;5.50;;
31910;SDS011;18457;52.432;16.914;2024-01-15T05:25:58;15.00;;;7.40;;
31910;SDS011;18457;52.432;16.914;2024-01-15T05:28:30;13.70;;;5.50;;
31910;SDS011;18457;52.432;16.914;2024-01-15T05:31:02;13.60;;;6.10;;
31910;SDS011;18457;52.432;16.914;2024-01-15T05:33:35;15.50;;;6.40;;
31910;SDS011;18457;52.432;16.914;2024-01-15T05:36:07;13.30;;;6.60;;
31910;SDS011;18457;52.432;16.914;2024-01-15T05:38:40;17.90;;;7.10;;
31910;SDS011;18457;52.432;16.914;2024-01-15T05:41:11;15.00;;;5.70;;
31910;SDS011;18457;52.432;16.914;2024-01-15T05:43:43;13.30;;;6.10;;
31910;SDS011;18457;52.432;16.914;2024-01-15T05:46:15;9.10;;;4.60;;
31910;SDS011;18457;52.432;16.914;2024-01-15T05:48:47;14.30;;;6.30;;
31910;SDS011;18457;52.432;16.914;2024-01-15T05:53:50;12.60;;;5.80;;
31910;SDS011;18457;52.432;16.914;2024-01-15T05:56:22;10.40;;;5.50;;
31910;SDS011;18457;52.432;16.914;2024-01-15T05:58:54;11.30;;;5.00;;
31910;SDS011;18457;52.432;16.914;2024-01-15T06:01:26;12.00;;;6.20;;
31910;SDS011;18457;52.432;16.914;2024-01-15T06:03:58;16.80;;;7.10;;
31910;SDS011;18457;52.432;16.914;2024-01-15T06:06:31;12.10;;;6.20;;
31910;SDS011;18457;52.432;16.914;2024-01-15T06:09:03;16.50;;;6.90;;
31910;SDS011;18457;52.432;16.914;2024-01-15T06:11:35;21.30;;;7.00;;
31910;SDS011;18457;52.432;16.914;2024-01-15T06:14:07;17.30;;;7.50;;
31910;SDS011;18457;52.432;16.914;2024-01-15T06:16:39;23.80;;;6.90;;
31910;SDS011;18457;52.432;16.914;2024-01-15T06:19:11;16.00;;;6.80;;
31910;SDS011;18457;52.432;16.914;2024-01-15T06:21:43;16.10;;;7.60;;
31910;SDS011;18457;52.432;16.914;2024-01-15T06:24:16;15.50;;;7.80;;
31910;SDS011;18457;52.432;16.914;2024-01-15T06:26:49;14.10;;;6.50;;
31910;SDS011;18457;52.432;16.914;2024-01-15T06:29:21;14.00;;;7.50;;
31910;SDS011;18457;52.432;16.914;2024-01-15T06:31:55;14.50;;;7.00;;
31910;SDS011;18457;52.432;16.914;2024-01-15T06:34:27;20.70;;;8.20;;
31910;SDS011;18457;52.432;16.914;2024-01-15T06:36:59;13.40;;;7.10;;
31910;SDS011;18457;52.432;16.914;2024-01-15T06:39:31;21.20;;;7.70;;
31910;SDS011;18457;52.432;16.914;2024-01-15T06:42:03;14.10;;;7.00;;
31910;SDS011;18457;52.432;16.914;2024-01-15T06:44:36;21.70;;;7.50;;
31910;SDS011;18457;52.432;16.914;2024-01-15T06:47:08;19.00;;;7.50;;
31910;SDS011;18457;52.432;16.914;2024-01-15T06:49:39;16.50;;;7.30;;
31910;SDS011;18457;52.432;16.914;2024-01-15T06:52:12;16.20;;;6.80;;
31910;SDS011;18457;52.432;16.914;2024-01-15T06:54:44;21.20;;;8.40;;
31910;SDS011;18457;52.432;16.914;2024-01-15T06:57:17;16.60;;;7.70;;
31910;SDS011;18457;52.432;16.914;2024-01-15T07:02:20;16.40;;;7.10;;
31910;SDS011;18457;52.432;16.914;2024-01-15T07:04:52;18.60;;;7.50;;
31910;SDS011;18457;52.432;16.914;2024-01-15T07:07:24;13.10;;;6.50;;
31910;SDS011;18457;52.432;16.914;2024-01-15T07:09:59;17.70;;;7.70;;
31910;SDS011;18457;52.432;16.914;2024-01-15T07:12:31;17.70;;;7.60;;
31910;SDS011;18457;52.432;16.914;2024-01-15T07:15:03;15.20;;;7.20;;
31910;SDS011;18457;52.432;16.914;2024-01-15T07:17:37;22.40;;;8.10;;
31910;SDS011;18457;52.432;16.914;2024-01-15T07:20:10;17.70;;;7.90;;
31910;SDS011;18457;52.432;16.914;2024-01-15T07:22:43;14.90;;;7.30;;
31910;SDS011;18457;52.432;16.914;2024-01-15T07:25:15;13.70;;;7.10;;
31910;SDS011;18457;52.432;16.914;2024-01-15T07:27:47;20.10;;;8.40;;
31910;SDS011;18457;52.432;16.914;2024-01-15T07:30:19;19.20;;;7.10;;
31910;SDS011;18457;52.432;16.914;2024-01-15T07:32:51;17.40;;;7.40;;
31910;SDS011;18457;52.432;16.914;2024-01-15T07:35:23;8.20;;;4.50;;
31910;SDS011;18457;52.432;16.914;2024-01-15T07:37:55;16.30;;;7.30;;
31910;SDS011;18457;52.432;16.914;2024-01-15T07:40:27;19.10;;;7.90;;
31910;SDS011;18457;52.432;16.914;2024-01-15T07:42:59;14.30;;;6.90;;
31910;SDS011;18457;52.432;16.914;2024-01-15T07:45:31;14.00;;;7.50;;
31910;SDS011;18457;52.432;16.914;2024-01-15T07:48:04;16.70;;;7.40;;
31910;SDS011;18457;52.432;16.914;2024-01-15T07:50:37;12.60;;;6.00;;
31910;SDS011;18457;52.432;16.914;2024-01-15T07:53:09;16.80;;;7.40;;
31910;SDS011;18457;52.432;16.914;2024-01-15T07:55:41;14.30;;;7.40;;
31910;SDS011;18457;52.432;16.914;2024-01-15T07:58:15;16.20;;;7.40;;
31910;SDS011;18457;52.432;16.914;2024-01-15T08:00:47;16.60;;;6.80;;
31910;SDS011;18457;52.432;16.914;2024-01-15T08:03:21;18.70;;;7.30;;
31910;SDS011;18457;52.432;16.914;2024-01-15T08:05:53;16.70;;;7.20;;
31910;SDS011;18457;52.432;16.914;2024-01-15T08:08:26;14.90;;;7.10;;
31910;SDS011;18457;52.432;16.914;2024-01-15T08:10:58;18.00;;;8.00;;
31910;SDS011;18457;52.432;16.914;2024-01-15T08:13:30;22.40;;;8.80;;
31910;SDS011;18457;52.432;16.914;2024-01-15T08:16:02;21.90;;;7.80;;
31910;SDS011;18457;52.432;16.914;2024-01-15T08:18:34;16.70;;;7.60;;
31910;SDS011;18457;52.432;16.914;2024-01-15T08:21:07;16.10;;;7.00;;
31910;SDS011;18457;52.432;16.914;2024-01-15T08:23:39;17.60;;;7.10;;
31910;SDS011;18457;52.432;16.914;2024-01-15T08:26:11;17.80;;;7.20;;
31910;SDS011;18457;52.432;16.914;2024-01-15T08:28:43;18.30;;;8.30;;
31910;SDS011;18457;52.432;16.914;2024-01-15T08:31:15;26.70;;;7.90;;
31910;SDS011;18457;52.432;16.914;2024-01-15T08:33:47;18.40;;;6.90;;
31910;SDS011;18457;52.432;16.914;2024-01-15T08:36:20;20.20;;;6.30;;
31910;SDS011;18457;52.432;16.914;2024-01-15T08:38:52;15.00;;;6.10;;
31910;SDS011;18457;52.432;16.914;2024-01-15T08:41:24;18.60;;;7.20;;
31910;SDS011;18457;52.432;16.914;2024-01-15T08:43:56;13.60;;;5.70;;
31910;SDS011;18457;52.432;16.914;2024-01-15T08:46:28;16.50;;;7.20;;
31910;SDS011;18457;52.432;16.914;2024-01-15T08:49:00;24.90;;;8.40;;
31910;SDS011;18457;52.432;16.914;2024-01-15T08:51:33;15.40;;;7.60;;
31910;SDS011;18457;52.432;16.914;2024-01-15T08:54:05;19.20;;;8.00;;
31910;SDS011;18457;52.432;16.914;2024-01-15T08:56:37;14.70;;;6.90;;
31910;SDS011;18457;52.432;16.914;2024-01-15T09:01:40;13.50;;;5.90;;
31910;SDS011;18457;52.432;16.914;2024-01-15T09:04:12;16.50;;;6.70;;
31910;SDS011;18457;52.432;16.914;2024-01-15T09:06:45;18.80;;;7.10;;
31910;SDS011;18457;52.432;16.914;2024-01-15T09:09:17;13.40;;;5.70;;
31910;SDS011;18457;52.432;16.914;2024-01-15T09:11:50;11.90;;;6.50;;
31910;SDS011;18457;52.432;16.914;2024-01-15T09:14:22;11.60;;;6.40;;
31910;SDS011;18457;52.432;16.914;2024-01-15T09:17:05;14.40;;;6.70;;
31910;SDS011;18457;52.432;16.914;2024-01-15T09:19:37;14.20;;;6.60;;
31910;SDS011;18457;52.432;16.914;2024-01-15T09:22:11;19.20;;;8.00;;
31910;SDS011;18457;52.432;16.914;2024-01-15T09:24:47;15.90;;;6.70;;
31910;SDS011;18457;52.432;16.914;2024-01-15T09:27:19;10.60;;;5.30;;
31910;SDS011;18457;52.432;16.914;2024-01-15T09:32:22;16.60;;;6.40;;
31910;SDS011;18457;52.432;16.914;2024-01-15T09:34:54;17.70;;;7.00;;
31910;SDS011;18457;52.432;16.914;2024-01-15T09:37:26;14.10;;;7.00;;
31910;SDS011;18457;52.432;16.914;2024-01-15T09:40:15;15.60;;;7.30;;
31910;SDS011;18457;52.432;16.914;2024-01-15T09:42:47;20.20;;;7.30;;
31910;SDS011;18457;52.432;16.914;2024-01-15T09:45:20;19.30;;;8.50;;
31910;SDS011;18457;52.432;16.914;2024-01-15T09:47:54;16.70;;;8.30;;
31910;SDS011;18457;52.432;16.914;2024-01-15T09:50:26;13.50;;;8.10;;
31910;SDS011;18457;52.432;16.914;2024-01-15T09:52:58;18.00;;;8.40;;
31910;SDS011;18457;52.432;16.914;2024-01-15T09:58:05;14.10;;;6.70;;
31910;SDS011;18457;52.432;16.914;2024-01-15T10:00:37;21.50;;;8.60;;
31910;SDS011;18457;52.432;16.914;2024-01-15T10:03:13;20.60;;;8.10;;
31910;SDS011;18457;52.432;16.914;2024-01-15T10:08:17;14.60;;;5.50;;
31910;SDS011;18457;52.432;16.914;2024-01-15T10:10:51;11.10;;;4.20;;
31910;SDS011;18457;52.432;16.914;2024-01-15T10:13:23;9.80;;;4.70;;
31910;SDS011;18457;52.432;16.914;2024-01-15T10:15:55;13.90;;;5.30;;
31910;SDS011;18457;52.432;16.914;2024-01-15T10:18:29;10.70;;;5.70;;
31910;SDS011;18457;52.432;16.914;2024-01-15T10:21:01;16.10;;;5.90;;
31910;SDS011;18457;52.432;16.914;2024-01-15T10:23:34;15.60;;;6.60;;
31910;SDS011;18457;52.432;16.914;2024-01-15T10:26:06;20.10;;;7.50;;
31910;SDS011;18457;52.432;16.914;2024-01-15T10:28:39;18.50;;;6.40;;
31910;SDS011;18457;52.432;16.914;2024-01-15T10:31:13;14.40;;;6.00;;
31910;SDS011;18457;52.432;16.914;2024-01-15T10:33:46;14.10;;;4.60;;
31910;SDS011;18457;52.432;16.914;2024-01-15T10:36:18;18.80;;;5.80;;
31910;SDS011;18457;52.432;16.914;2024-01-15T10:38:50;11.00;;;5.60;;
31910;SDS011;18457;52.432;16.914;2024-01-15T10:41:28;15.00;;;5.40;;
31910;SDS011;18457;52.432;16.914;2024-01-15T10:44:00;16.20;;;5.90;;
31910;SDS011;18457;52.432;16.914;2024-01-15T10:46:33;20.40;;;7.00;;
31910;SDS011;18457;52.432;16.914;2024-01-15T10:51:36;20.70;;;5.70;;
31910;SDS011;18457;52.432;16.914;2024-01-15T10:54:09;10.00;;;5.60;;
31910;SDS011;18457;52.432;16.914;2024-01-15T10:56:42;14.30;;;5.10;;
31910;SDS011;18457;52.432;16.914;2024-01-15T10:59:16;11.80;;;3.80;;
31910;SDS011;18457;52.432;16.914;2024-01-15T11:01:49;7.60;;;4.50;;
31910;SDS011;18457;52.432;16.914;2024-01-15T11:04:23;10.60;;;4.50;;
31910;SDS011;18457;52.432;16.914;2024-01-15T11:06:58;11.90;;;5.30;;
31910;SDS011;18457;52.432;16.914;2024-01-15T11:09:30;19.70;;;5.30;;
31910;SDS011;18457;52.432;16.914;2024-01-15T11:12:09;10.00;;;4.30;;
31910;SDS011;18457;52.432;16.914;2024-01-15T11:14:46;11.80;;;4.30;;
31910;SDS011;18457;52.432;16.914;2024-01-15T11:17:19;10.70;;;3.40;;
31910;SDS011;18457;52.432;16.914;2024-01-15T11:19:50;10.10;;;5.00;;
31910;SDS011;18457;52.432;16.914;2024-01-15T11:25:14;13.00;;;4.70;;
31910;SDS011;18457;52.432;16.914;2024-01-15T11:27:49;14.40;;;4.90;;
31910;SDS011;18457;52.432;16.914;2024-01-15T11:30:25;13.30;;;5.10;;
31910;SDS011;18457;52.432;16.914;2024-01-15T11:32:58;19.80;;;4.80;;
31910;SDS011;18457;52.432;16.914;2024-01-15T11:38:27;15.00;;;4.60;;
31910;SDS011;18457;52.432;16.914;2024-01-15T11:40:59;14.40;;;4.50;;
31910;SDS011;18457;52.432;16.914;2024-01-15T11:43:43;9.40;;;4.20;;
31910;SDS011;18457;52.432;16.914;2024-01-15T11:46:15;9.50;;;3.90;;
31910;SDS011;18457;52.432;16.914;2024-01-15T11:48:49;14.30;;;5.20;;
31910;SDS011;18457;52.432;16.914;2024-01-15T11:51:33;15.20;;;5.20;;
31910;SDS011;18457;52.432;16.914;2024-01-15T11:54:06;16.90;;;5.00;;
31910;SDS011;18457;52.432;16.914;2024-01-15T11:56:42;9.20;;;4.10;;
31910;SDS011;18457;52.432;16.914;2024-01-15T11:59:17;13.10;;;4.90;;
31910;SDS011;18457;52.432;16.914;2024-01-15T12:01:50;13.00;;;4.50;;
31910;SDS011;18457;52.432;16.914;2024-01-15T12:04:23;14.20;;;4.40;;
31910;SDS011;18457;52.432;16.914;2024-01-15T12:06:56;14.90;;;4.90;;
31910;SDS011;18457;52.432;16.914;2024-01-15T12:09:28;9.70;;;4.30;;
31910;SDS011;18457;52.432;16.914;2024-01-15T12:12:02;11.60;;;4.60;;
31910;SDS011;18457;52.432;16.914;2024-01-15T12:14:41;12.60;;;4.70;;
31910;SDS011;18457;52.432;16.914;2024-01-15T12:17:13;14.10;;;4.40;;
31910;SDS011;18457;52.432;16.914;2024-01-15T12:19:46;14.70;;;5.10;;
31910;SDS011;18457;52.432;16.914;2024-01-15T12:22:19;15.70;;;5.60;;
31910;SDS011;18457;52.432;16.914;2024-01-15T12:24:50;12.00;;;4.20;;
31910;SDS011;18457;52.432;16.914;2024-01-15T12:27:23;12.80;;;5.10;;
31910;SDS011;18457;52.432;16.914;2024-01-15T12:29:55;9.00;;;4.30;;
31910;SDS011;18457;52.432;16.914;2024-01-15T12:32:28;12.00;;;3.80;;
31910;SDS011;18457;52.432;16.914;2024-01-15T12:35:01;9.50;;;4.40;;
31910;SDS011;18457;52.432;16.914;2024-01-15T12:37:34;10.60;;;4.00;;
31910;SDS011;18457;52.432;16.914;2024-01-15T12:40:08;9.60;;;4.30;;
31910;SDS011;18457;52.432;16.914;2024-01-15T12:42:41;10.90;;;4.40;;
31910;SDS011;18457;52.432;16.914;2024-01-15T12:45:13;8.10;;;3.00;;
31910;SDS011;18457;52.432;16.914;2024-01-15T12:47:45;12.30;;;4.60;;
31910;SDS011;18457;52.432;16.914;2024-01-15T12:50:19;8.70;;;3.50;;
31910;SDS011;18457;52.432;16.914;2024-01-15T12:52:54;7.80;;;3.60;;
31910;SDS011;18457;52.432;16.914;2024-01-15T12:55:28;8.50;;;3.10;;
31910;SDS011;18457;52.432;16.914;2024-01-15T12:58:00;3.10;;;1.80;;
31910;SDS011;18457;52.432;16.914;2024-01-15T13:00:32;10.10;;;3.30;;
31910;SDS011;18457;52.432;16.914;2024-01-15T13:03:04;10.10;;;3.20;;
31910;SDS011;18457;52.432;16.914;2024-01-15T13:05:37;6.70;;;2.60;;
31910;SDS011;18457;52.432;16.914;2024-01-15T13:08:11;6.20;;;3.20;;
31910;SDS011;18457;52.432;16.914;2024-01-15T13:10:43;10.10;;;3.40;;
31910;SDS011;18457;52.432;16.914;2024-01-15T13:13:15;10.90;;;3.20;;
31910;SDS011;18457;52.432;16.914;2024-01-15T13:15:47;10.10;;;3.70;;
31910;SDS011;18457;52.432;16.914;2024-01-15T13:18:19;6.20;;;3.20;;
31910;SDS011;18457;52.432;16.914;2024-01-15T13:20:51;14.40;;;3.80;;
31910;SDS011;18457;52.432;16.914;2024-01-15T13:23:24;6.00;;;2.80;;
31910;SDS011;18457;52.432;16.914;2024-01-15T13:25:56;8.40;;;3.70;;
31910;SDS011;18457;52.432;16.914;2024-01-15T13:28:28;9.80;;;3.90;;
31910;SDS011;18457;52.432;16.914;2024-01-15T13:31:00;14.40;;;3.20;;
31910;SDS011;18457;52.432;16.914;2024-01-15T13:33:33;6.00;;;3.00;;
31910;SDS011;18457;52.432;16.914;2024-01-15T13:36:09;7.70;;;3.40;;
31910;SDS011;18457;52.432;16.914;2024-01-15T13:38:41;10.30;;;4.20;;
31910;SDS011;18457;52.432;16.914;2024-01-15T13:41:13;6.90;;;3.00;;
31910;SDS011;18457;52.432;16.914;2024-01-15T13:43:49;9.40;;;2.70;;
31910;SDS011;18457;52.432;16.914;2024-01-15T13:46:23;13.50;;;3.30;;
31910;SDS011;18457;52.432;16.914;2024-01-15T13:48:56;7.00;;;4.20;;
31910;SDS011;18457;52.432;16.914;2024-01-15T13:51:28;14.40;;;3.60;;
31910;SDS011;18457;52.432;16.914;2024-01-15T13:54:00;5.90;;;2.60;;
31910;SDS011;18457;52.432;16.914;2024-01-15T13:56:33;5.90;;;1.50;;
31910;SDS011;18457;52.432;16.914;2024-01-15T13:59:06;2.00;;;1.50;;
31910;SDS011;18457;52.432;16.914;2024-01-15T14:01:38;3.70;;;1.90;;
31910;SDS011;18457;52.432;16.914;2024-01-15T14:04:10;5.40;;;1.80;;
31910;SDS011;18457;52.432;16.914;2024-01-15T14:06:42;8.30;;;3.20;;
31910;SDS011;18457;52.432;16.914;2024-01-15T14:09:15;7.10;;;2.70;;
31910;SDS011;18457;52.432;16.914;2024-01-15T14:11:47;8.30;;;3.20;;
31910;SDS011;18457;52.432;16.914;2024-01-15T14:14:19;6.70;;;3.20;;
31910;SDS011;18457;52.432;16.914;2024-01-15T14:19:22;8.30;;;2.80;;
31910;SDS011;18457;52.432;16.914;2024-01-15T14:21:54;12.40;;;2.90;;
31910;SDS011;18457;52.432;16.914;2024-01-15T14:24:26;14.70;;;3.10;;
31910;SDS011;18457;52.432;16.914;2024-01-15T14:26:58;6.70;;;3.20;;
31910;SDS011;18457;52.432;16.914;2024-01-15T14:29:30;8.30;;;3.50;;
31910;SDS011;18457;52.432;16.914;2024-01-15T14:32:02;10.30;;;3.30;;
31910;SDS011;18457;52.432;16.914;2024-01-15T14:37:06;6.10;;;3.10;;
31910;SDS011;18457;52.432;16.914;2024-01-15T14:39:38;9.50;;;3.10;;
31910;SDS011;18457;52.432;16.914;2024-01-15T14:42:13;8.80;;;3.20;;
31910;SDS011;18457;52.432;16.914;2024-01-15T14:44:46;17.70;;;4.80;;
31910;SDS011;18457;52.432;16.914;2024-01-15T14:47:18;10.10;;;4.30;;
31910;SDS011;18457;52.432;16.914;2024-01-15T14:49:53;6.40;;;3.80;;
31910;SDS011;18457;52.432;16.914;2024-01-15T14:52:26;225.30;;;61.80;;
31910;SDS011;18457;52.432;16.914;2024-01-15T14:54:58;187.40;;;63.80;;
31910;SDS011;18457;52.432;16.914;2024-01-15T14:57:30;12.80;;;6.20;;
31910;SDS011;18457;52.432;16.914;2024-01-15T15:00:02;14.50;;;4.10;;
31910;SDS011;18457;52.432;16.914;2024-01-15T15:02:38;11.20;;;4.70;;
31910;SDS011;18457;52.432;16.914;2024-01-15T15:05:10;9.70;;;3.60;;
31910;SDS011;18457;52.432;16.914;2024-01-15T15:07:43;11.60;;;4.10;;
31910;SDS011;18457;52.432;16.914;2024-01-15T15:10:16;9.10;;;3.20;;
31910;SDS011;18457;52.432;16.914;2024-01-15T15:12:48;14.70;;;3.80;;
31910;SDS011;18457;52.432;16.914;2024-01-15T15:15:20;6.70;;;3.70;;
31910;SDS011;18457;52.432;16.914;2024-01-15T15:17:53;5.20;;;2.90;;
31910;SDS011;18457;52.432;16.914;2024-01-15T15:20:25;10.70;;;4.80;;
31910;SDS011;18457;52.432;16.914;2024-01-15T15:22:57;13.60;;;3.70;;